sensor_id;sensor_type;location;lat;lon;timestamp;temperature;humidity
59977;DHT22;45837;51.076;3.578;2024-02-14T00:01:23;21.20;55.60
59977;DHT22;45837;51.076;3.578;2024-02-14T00:03:49;21.20;55.60
59977;DHT22;45837;51.076;3.578;2024-02-14T00:06:15;21.20;55.70
59977;DHT22;45837;51.076;3.578;2024-02-14T00:08:41;21.20;55.70
59977;DHT22;45837;51.076;3.578;2024-02-14T00:11:07;21.20;55.60
59977;DHT22;45837;51.076;3.578;2024-02-14T00:13:32;21.20;55.60
59977;DHT22;45837;51.076;3.578;2024-02-14T00:16:00;21.20;55.50
59977;DHT22;45837;51.076;3.578;2024-02-14T00:18:27;21.20;55.40
59977;DHT22;45837;51.076;3.578;2024-02-14T00:20:53;21.20;55.50
59977;DHT22;45837;51.076;3.578;2024-02-14T00:23:18;21.20;55.40
59977;DHT22;45837;51.076;3.578;2024-02-14T00:25:44;21.20;55.40
59977;DHT22;45837;51.076;3.578;2024-02-14T00:28:10;21.10;55.40
59977;DHT22;45837;51.076;3.578;2024-02-14T00:30:36;21.10;55.40
59977;DHT22;45837;51.076;3.578;2024-02-14T00:33:02;21.10;55.50
59977;DHT22;45837;51.076;3.578;2024-02-14T00:35:27;21.10;55.40
59977;DHT22;45837;51.076;3.578;2024-02-14T00:37:53;21.10;55.40
59977;DHT22;45837;51.076;3.578;2024-02-14T00:40:19;21.00;55.50
59977;DHT22;45837;51.076;3.578;2024-02-14T00:42:45;21.00;55.40
59977;DHT22;45837;51.076;3.578;2024-02-14T00:45:11;21.00;55.30
59977;DHT22;45837;51.076;3.578;2024-02-14T00:47:37;21.10;55.40
59977;DHT22;45837;51.076;3.578;2024-02-14T00:50:03;21.00;55.30
59977;DHT22;45837;51.076;3.578;2024-02-14T00:52:29;21.00;55.20
59977;DHT22;45837;51.076;3.578;2024-02-14T00:54:55;21.00;55.20
59977;DHT22;45837;51.076;3.578;2024-02-14T00:57:21;21.00;55.30
59977;DHT22;45837;51.076;3.578;2024-02-14T00:59:54;21.00;55.30
59977;DHT22;45837;51.076;3.578;2024-02-14T01:02:22;21.00;55.30
59977;DHT22;45837;51.076;3.578;2024-02-14T01:04:48;21.00;55.30
59977;DHT22;45837;51.076;3.578;2024-02-14T01:07:13;20.90;55.20
59977;DHT22;45837;51.076;3.578;2024-02-14T01:09:39;20.90;55.10
59977;DHT22;45837;51.076;3.578;2024-02-14T01:12:05;20.90;55.20
59977;DHT22;45837;51.076;3.578;2024-02-14T01:14:32;20.90;55.20
59977;DHT22;45837;51.076;3.578;2024-02-14T01:16:58;20.90;55.20
59977;DHT22;45837;51.076;3.578;2024-02-14T01:19:24;20.90;55.30
59977;DHT22;45837;51.076;3.578;2024-02-14T01:21:54;20.90;55.30
59977;DHT22;45837;51.076;3.578;2024-02-14T01:24:20;20.10;55.00
59977;DHT22;45837;51.076;3.578;2024-02-14T01:26:48;20.80;55.20
59977;DHT22;45837;51.076;3.578;2024-02-14T01:29:16;20.80;55.30
59977;DHT22;45837;51.076;3.578;2024-02-14T01:31:42;20.80;55.40
59977;DHT22;45837;51.076;3.578;2024-02-14T01:34:08;20.80;55.40
59977;DHT22;45837;51.076;3.578;2024-02-14T01:36:34;20.80;55.40
59977;DHT22;45837;51.076;3.578;2024-02-14T01:39:00;20.80;55.40
59977;DHT22;45837;51.076;3.578;2024-02-14T01:41:25;20.80;55.50
59977;DHT22;45837;51.076;3.578;2024-02-14T01:43:51;20.70;55.30
59977;DHT22;45837;51.076;3.578;2024-02-14T01:46:18;20.70;55.30
59977;DHT22;45837;51.076;3.578;2024-02-14T01:48:44;20.70;55.40
59977;DHT22;45837;51.076;3.578;2024-02-14T01:51:11;20.70;55.40
59977;DHT22;45837;51.076;3.578;2024-02-14T01:53:38;20.70;55.30
59977;DHT22;45837;51.076;3.578;2024-02-14T01:56:06;20.70;55.40
59977;DHT22;45837;51.076;3.578;2024-02-14T01:58:33;20.70;55.40
59977;DHT22;45837;51.076;3.578;2024-02-14T02:00:59;20.70;55.50
59977;DHT22;45837;51.076;3.578;2024-02-14T02:03:27;20.60;55.40
59977;DHT22;45837;51.076;3.578;2024-02-14T02:05:53;20.60;55.40
59977;DHT22;45837;51.076;3.578;2024-02-14T02:08:21;20.60;55.50
59977;DHT22;45837;51.076;3.578;2024-02-14T02:10:47;20.60;55.60
59977;DHT22;45837;51.076;3.578;2024-02-14T02:13:13;20.60;55.50
59977;DHT22;45837;51.076;3.578;2024-02-14T02:15:41;20.60;55.60
59977;DHT22;45837;51.076;3.578;2024-02-14T02:18:10;20.50;55.50
59977;DHT22;45837;51.076;3.578;2024-02-14T02:20:37;20.60;55.50
59977;DHT22;45837;51.076;3.578;2024-02-14T02:23:03;20.50;55.60
59977;DHT22;45837;51.076;3.578;2024-02-14T02:25:30;20.50;55.50
59977;DHT22;45837;51.076;3.578;2024-02-14T02:27:56;20.50;55.60
59977;DHT22;45837;51.076;3.578;2024-02-14T02:30:23;20.50;55.50
59977;DHT22;45837;51.076;3.578;2024-02-14T02:32:52;20.50;55.60
59977;DHT22;45837;51.076;3.578;2024-02-14T02:35:18;20.50;55.70
59977;DHT22;45837;51.076;3.578;2024-02-14T02:37:47;20.50;55.50
59977;DHT22;45837;51.076;3.578;2024-02-14T02:40:17;20.50;55.40
59977;DHT22;45837;51.076;3.578;2024-02-14T02:42:43;20.50;55.40
59977;DHT22;45837;51.076;3.578;2024-02-14T02:45:11;20.50;55.50
59977;DHT22;45837;51.076;3.578;2024-02-14T02:47:37;20.50;55.50
59977;DHT22;45837;51.076;3.578;2024-02-14T02:50:02;20.50;55.50
59977;DHT22;45837;51.076;3.578;2024-02-14T02:52:29;20.50;55.50
59977;DHT22;45837;51.076;3.578;2024-02-14T02:54:56;20.50;55.50
59977;DHT22;45837;51.076;3.578;2024-02-14T02:57:22;20.50;55.50
59977;DHT22;45837;51.076;3.578;2024-02-14T02:59:48;20.50;55.50
59977;DHT22;45837;51.076;3.578;2024-02-14T03:02:15;20.50;55.40
59977;DHT22;45837;51.076;3.578;2024-02-14T03:04:41;20.40;55.70
59977;DHT22;45837;51.076;3.578;2024-02-14T03:07:08;20.40;55.70
59977;DHT22;45837;51.076;3.578;2024-02-14T03:09:37;20.40;55.50
59977;DHT22;45837;51.076;3.578;2024-02-14T03:12:04;20.40;55.70
59977;DHT22;45837;51.076;3.578;2024-02-14T03:14:31;20.40;55.50
59977;DHT22;45837;51.076;3.578;2024-02-14T03:17:02;20.40;55.50
59977;DHT22;45837;51.076;3.578;2024-02-14T03:19:29;20.30;55.50
59977;DHT22;45837;51.076;3.578;2024-02-14T03:21:55;20.40;55.50
59977;DHT22;45837;51.076;3.578;2024-02-14T03:24:22;20.30;55.50
59977;DHT22;45837;51.076;3.578;2024-02-14T03:26:48;20.30;55.40
59977;DHT22;45837;51.076;3.578;2024-02-14T03:29:17;20.40;55.70
59977;DHT22;45837;51.076;3.578;2024-02-14T03:31:45;20.30;55.50
59977;DHT22;45837;51.076;3.578;2024-02-14T03:34:11;20.30;55.50
59977;DHT22;45837;51.076;3.578;2024-02-14T03:36:37;20.30;55.60
59977;DHT22;45837;51.076;3.578;2024-02-14T03:39:04;20.30;55.60
59977;DHT22;45837;51.076;3.578;2024-02-14T03:41:31;20.30;55.60
59977;DHT22;45837;51.076;3.578;2024-02-14T03:43:57;20.30;55.50
59977;DHT22;45837;51.076;3.578;2024-02-14T03:46:29;20.30;55.50
59977;DHT22;45837;51.076;3.578;2024-02-14T03:48:55;20.30;55.50
59977;DHT22;45837;51.076;3.578;2024-02-14T03:51:24;20.30;55.70
59977;DHT22;45837;51.076;3.578;2024-02-14T03:53:50;20.30;55.50
59977;DHT22;45837;51.076;3.578;2024-02-14T03:56:16;20.30;55.60
59977;DHT22;45837;51.076;3.578;2024-02-14T03:58:43;20.20;55.60
59977;DHT22;45837;51.076;3.578;2024-02-14T04:01:08;20.20;55.60
59977;DHT22;45837;51.076;3.578;2024-02-14T04:03:34;20.20;55.70
59977;DHT22;45837;51.076;3.578;2024-02-14T04:06:00;20.20;55.60
59977;DHT22;45837;51.076;3.578;2024-02-14T04:08:26;20.20;55.70
59977;DHT22;45837;51.076;3.578;2024-02-14T04:10:52;20.20;55.70
59977;DHT22;45837;51.076;3.578;2024-02-14T04:13:21;20.20;55.80
59977;DHT22;45837;51.076;3.578;2024-02-14T04:15:47;20.10;55.70
59977;DHT22;45837;51.076;3.578;2024-02-14T04:18:13;20.10;55.80
59977;DHT22;45837;51.076;3.578;2024-02-14T04:20:44;20.10;55.70
59977;DHT22;45837;51.076;3.578;2024-02-14T04:23:10;20.10;55.70
59977;DHT22;45837;51.076;3.578;2024-02-14T04:25:36;20.10;55.80
59977;DHT22;45837;51.076;3.578;2024-02-14T04:28:03;20.10;56.00
59977;DHT22;45837;51.076;3.578;2024-02-14T04:30:29;20.10;55.90
59977;DHT22;45837;51.076;3.578;2024-02-14T04:32:55;20.10;55.80
59977;DHT22;45837;51.076;3.578;2024-02-14T04:35:21;20.10;55.90
59977;DHT22;45837;51.076;3.578;2024-02-14T04:37:47;20.10;55.80
59977;DHT22;45837;51.076;3.578;2024-02-14T04:40:15;20.10;55.90
59977;DHT22;45837;51.076;3.578;2024-02-14T04:42:41;20.10;55.90
59977;DHT22;45837;51.076;3.578;2024-02-14T04:45:07;20.10;55.80
59977;DHT22;45837;51.076;3.578;2024-02-14T04:47:34;20.10;55.90
59977;DHT22;45837;51.076;3.578;2024-02-14T04:50:00;20.00;56.00
59977;DHT22;45837;51.076;3.578;2024-02-14T04:52:27;20.00;55.80
59977;DHT22;45837;51.076;3.578;2024-02-14T04:54:53;20.00;55.90
59977;DHT22;45837;51.076;3.578;2024-02-14T04:57:18;20.00;55.90
59977;DHT22;45837;51.076;3.578;2024-02-14T04:59:45;20.00;55.90
59977;DHT22;45837;51.076;3.578;2024-02-14T05:02:11;20.00;55.90
59977;DHT22;45837;51.076;3.578;2024-02-14T05:04:37;19.90;55.80
59977;DHT22;45837;51.076;3.578;2024-02-14T05:07:05;20.00;55.90
59977;DHT22;45837;51.076;3.578;2024-02-14T05:09:31;20.00;55.90
59977;DHT22;45837;51.076;3.578;2024-02-14T05:11:56;20.00;55.90
59977;DHT22;45837;51.076;3.578;2024-02-14T05:14:23;20.00;56.10
59977;DHT22;45837;51.076;3.578;2024-02-14T05:16:49;19.90;55.90
59977;DHT22;45837;51.076;3.578;2024-02-14T05:19:14;19.90;56.30
59977;DHT22;45837;51.076;3.578;2024-02-14T05:21:40;19.90;55.60
59977;DHT22;45837;51.076;3.578;2024-02-14T05:24:06;19.90;55.00
59977;DHT22;45837;51.076;3.578;2024-02-14T05:26:33;19.90;54.90
59977;DHT22;45837;51.076;3.578;2024-02-14T05:28:59;19.80;54.80
59977;DHT22;45837;51.076;3.578;2024-02-14T05:31:43;19.80;54.90
59977;DHT22;45837;51.076;3.578;2024-02-14T05:34:09;19.80;54.90
59977;DHT22;45837;51.076;3.578;2024-02-14T05:36:36;19.80;55.30
59977;DHT22;45837;51.076;3.578;2024-02-14T05:39:02;19.80;55.50
59977;DHT22;45837;51.076;3.578;2024-02-14T05:41:28;19.80;56.00
59977;DHT22;45837;51.076;3.578;2024-02-14T05:43:54;19.80;56.60
59977;DHT22;45837;51.076;3.578;2024-02-14T05:46:20;19.80;56.90
59977;DHT22;45837;51.076;3.578;2024-02-14T05:48:46;19.90;56.50
59977;DHT22;45837;51.076;3.578;2024-02-14T05:51:14;19.90;56.40
59977;DHT22;45837;51.076;3.578;2024-02-14T05:53:39;19.90;56.40
59977;DHT22;45837;51.076;3.578;2024-02-14T05:56:05;19.90;56.30
59977;DHT22;45837;51.076;3.578;2024-02-14T05:58:31;19.90;56.20
59977;DHT22;45837;51.076;3.578;2024-02-14T06:00:57;19.90;56.20
59977;DHT22;45837;51.076;3.578;2024-02-14T06:03:23;19.90;56.40
59977;DHT22;45837;51.076;3.578;2024-02-14T06:05:49;19.90;56.40
59977;DHT22;45837;51.076;3.578;2024-02-14T06:08:15;19.80;56.30
59977;DHT22;45837;51.076;3.578;2024-02-14T06:10:44;19.80;56.30
59977;DHT22;45837;51.076;3.578;2024-02-14T06:13:10;19.80;56.40
59977;DHT22;45837;51.076;3.578;2024-02-14T06:15:35;19.80;56.30
59977;DHT22;45837;51.076;3.578;2024-02-14T06:18:01;19.80;56.40
59977;DHT22;45837;51.076;3.578;2024-02-14T06:20:27;19.80;56.40
59977;DHT22;45837;51.076;3.578;2024-02-14T06:22:53;19.80;56.40
59977;DHT22;45837;51.076;3.578;2024-02-14T06:25:20;19.80;56.30
59977;DHT22;45837;51.076;3.578;2024-02-14T06:27:46;19.80;56.30
59977;DHT22;45837;51.076;3.578;2024-02-14T06:30:12;19.80;56.30
59977;DHT22;45837;51.076;3.578;2024-02-14T06:32:38;19.80;56.30
59977;DHT22;45837;51.076;3.578;2024-02-14T06:35:04;19.80;56.40
59977;DHT22;45837;51.076;3.578;2024-02-14T06:37:30;19.80;56.20
59977;DHT22;45837;51.076;3.578;2024-02-14T06:39:56;19.80;56.40
59977;DHT22;45837;51.076;3.578;2024-02-14T06:42:22;19.80;56.30
59977;DHT22;45837;51.076;3.578;2024-02-14T06:44:48;19.80;56.40
59977;DHT22;45837;51.076;3.578;2024-02-14T06:47:15;19.80;56.40
59977;DHT22;45837;51.076;3.578;2024-02-14T06:49:41;19.80;56.40
59977;DHT22;45837;51.076;3.578;2024-02-14T06:52:07;19.70;56.40
59977;DHT22;45837;51.076;3.578;2024-02-14T06:54:32;19.70;56.30
59977;DHT22;45837;51.076;3.578;2024-02-14T06:56:59;19.70;56.30
59977;DHT22;45837;51.076;3.578;2024-02-14T06:59:25;19.70;56.30
59977;DHT22;45837;51.076;3.578;2024-02-14T07:01:51;19.70;56.30
59977;DHT22;45837;51.076;3.578;2024-02-14T07:04:21;19.70;56.30
59977;DHT22;45837;51.076;3.578;2024-02-14T07:06:52;19.70;56.30
59977;DHT22;45837;51.076;3.578;2024-02-14T07:09:18;19.70;56.30
59977;DHT22;45837;51.076;3.578;2024-02-14T07:11:44;19.70;56.30
59977;DHT22;45837;51.076;3.578;2024-02-14T07:14:11;19.70;56.40
59977;DHT22;45837;51.076;3.578;2024-02-14T07:16:37;19.70;56.30
59977;DHT22;45837;51.076;3.578;2024-02-14T07:19:03;19.70;56.40
59977;DHT22;45837;51.076;3.578;2024-02-14T07:21:29;19.70;56.40
59977;DHT22;45837;51.076;3.578;2024-02-14T07:23:55;19.70;56.40
59977;DHT22;45837;51.076;3.578;2024-02-14T07:26:21;19.70;56.50
59977;DHT22;45837;51.076;3.578;2024-02-14T07:28:47;19.70;56.50
59977;DHT22;45837;51.076;3.578;2024-02-14T07:31:13;19.70;56.50
59977;DHT22;45837;51.076;3.578;2024-02-14T07:33:38;19.60;56.40
59977;DHT22;45837;51.076;3.578;2024-02-14T07:36:05;19.70;56.40
59977;DHT22;45837;51.076;3.578;2024-02-14T07:38:30;19.60;56.50
59977;DHT22;45837;51.076;3.578;2024-02-14T07:40:56;19.60;56.30
59977;DHT22;45837;51.076;3.578;2024-02-14T07:43:22;19.60;56.80
59977;DHT22;45837;51.076;3.578;2024-02-14T07:45:48;19.60;56.60
59977;DHT22;45837;51.076;3.578;2024-02-14T07:48:14;19.70;56.70
59977;DHT22;45837;51.076;3.578;2024-02-14T07:50:40;19.70;57.00
59977;DHT22;45837;51.076;3.578;2024-02-14T07:53:05;19.70;57.40
59977;DHT22;45837;51.076;3.578;2024-02-14T07:55:31;19.70;57.50
59977;DHT22;45837;51.076;3.578;2024-02-14T07:57:57;19.70;57.80
59977;DHT22;45837;51.076;3.578;2024-02-14T08:00:25;19.80;58.00
59977;DHT22;45837;51.076;3.578;2024-02-14T08:02:51;19.80;58.10
59977;DHT22;45837;51.076;3.578;2024-02-14T08:05:17;19.80;58.20
59977;DHT22;45837;51.076;3.578;2024-02-14T08:07:44;19.80;58.10
59977;DHT22;45837;51.076;3.578;2024-02-14T08:10:11;20.00;58.80
59977;DHT22;45837;51.076;3.578;2024-02-14T08:12:37;20.00;58.20
59977;DHT22;45837;51.076;3.578;2024-02-14T08:15:03;20.00;58.30
59977;DHT22;45837;51.076;3.578;2024-02-14T08:17:30;20.10;58.50
59977;DHT22;45837;51.076;3.578;2024-02-14T08:19:56;20.20;58.40
59977;DHT22;45837;51.076;3.578;2024-02-14T08:22:22;20.10;58.30
59977;DHT22;45837;51.076;3.578;2024-02-14T08:24:48;20.30;58.40
59977;DHT22;45837;51.076;3.578;2024-02-14T08:27:13;20.40;58.30
59977;DHT22;45837;51.076;3.578;2024-02-14T08:29:39;20.40;58.30
59977;DHT22;45837;51.076;3.578;2024-02-14T08:32:07;20.50;58.40
59977;DHT22;45837;51.076;3.578;2024-02-14T08:34:33;20.60;58.50
59977;DHT22;45837;51.076;3.578;2024-02-14T08:36:59;20.60;58.30
59977;DHT22;45837;51.076;3.578;2024-02-14T08:39:25;20.70;58.20
59977;DHT22;45837;51.076;3.578;2024-02-14T08:41:51;20.80;58.10
59977;DHT22;45837;51.076;3.578;2024-02-14T08:44:21;20.80;58.00
59977;DHT22;45837;51.076;3.578;2024-02-14T08:46:46;20.90;58.00
59977;DHT22;45837;51.076;3.578;2024-02-14T08:49:14;20.90;57.90
59977;DHT22;45837;51.076;3.578;2024-02-14T08:51:40;20.90;57.90
59977;DHT22;45837;51.076;3.578;2024-02-14T08:54:07;20.90;57.90
59977;DHT22;45837;51.076;3.578;2024-02-14T08:56:33;21.00;57.90
59977;DHT22;45837;51.076;3.578;2024-02-14T08:59:03;20.90;57.50
59977;DHT22;45837;51.076;3.578;2024-02-14T09:01:30;20.90;58.00
59977;DHT22;45837;51.076;3.578;2024-02-14T09:03:56;20.90;57.30
59977;DHT22;45837;51.076;3.578;2024-02-14T09:06:22;20.90;57.10
59977;DHT22;45837;51.076;3.578;2024-02-14T09:08:48;20.90;57.20
59977;DHT22;45837;51.076;3.578;2024-02-14T09:11:16;20.90;56.80
59977;DHT22;45837;51.076;3.578;2024-02-14T09:13:42;21.00;56.80
59977;DHT22;45837;51.076;3.578;2024-02-14T09:16:09;20.90;56.70
59977;DHT22;45837;51.076;3.578;2024-02-14T09:18:36;20.90;56.50
59977;DHT22;45837;51.076;3.578;2024-02-14T09:21:02;20.90;56.40
59977;DHT22;45837;51.076;3.578;2024-02-14T09:23:31;21.00;56.30
59977;DHT22;45837;51.076;3.578;2024-02-14T09:25:58;21.00;56.30
59977;DHT22;45837;51.076;3.578;2024-02-14T09:28:23;20.90;56.20
59977;DHT22;45837;51.076;3.578;2024-02-14T09:30:51;20.90;56.10
59977;DHT22;45837;51.076;3.578;2024-02-14T09:33:17;20.90;56.10
59977;DHT22;45837;51.076;3.578;2024-02-14T09:35:42;20.90;56.10
59977;DHT22;45837;51.076;3.578;2024-02-14T09:38:10;20.90;55.90
59977;DHT22;45837;51.076;3.578;2024-02-14T09:40:40;20.90;55.90
59977;DHT22;45837;51.076;3.578;2024-02-14T09:43:32;20.90;55.70
59977;DHT22;45837;51.076;3.578;2024-02-14T09:45:58;20.90;55.90
59977;DHT22;45837;51.076;3.578;2024-02-14T09:48:25;20.90;56.20
59977;DHT22;45837;51.076;3.578;2024-02-14T09:50:52;20.80;56.60
59977;DHT22;45837;51.076;3.578;2024-02-14T09:53:19;20.70;57.10
59977;DHT22;45837;51.076;3.578;2024-02-14T09:55:46;20.70;57.40
59977;DHT22;45837;51.076;3.578;2024-02-14T09:58:12;20.80;57.50
59977;DHT22;45837;51.076;3.578;2024-02-14T10:00:38;20.80;57.70
59977;DHT22;45837;51.076;3.578;2024-02-14T10:03:07;20.80;57.80
59977;DHT22;45837;51.076;3.578;2024-02-14T10:05:33;20.80;58.10
59977;DHT22;45837;51.076;3.578;2024-02-14T10:07:59;20.80;58.20
59977;DHT22;45837;51.076;3.578;2024-02-14T10:10:27;20.90;58.30
59977;DHT22;45837;51.076;3.578;2024-02-14T10:12:56;20.90;58.40
59977;DHT22;45837;51.076;3.578;2024-02-14T10:15:22;20.90;58.50
59977;DHT22;45837;51.076;3.578;2024-02-14T10:17:48;20.90;58.60
59977;DHT22;45837;51.076;3.578;2024-02-14T10:20:17;21.00;58.70
59977;DHT22;45837;51.076;3.578;2024-02-14T10:22:43;21.00;58.60
59977;DHT22;45837;51.076;3.578;2024-02-14T10:25:10;21.00;58.70
59977;DHT22;45837;51.076;3.578;2024-02-14T10:27:37;21.00;58.70
59977;DHT22;45837;51.076;3.578;2024-02-14T10:30:09;21.10;58.60
59977;DHT22;45837;51.076;3.578;2024-02-14T10:32:39;21.10;58.60
59977;DHT22;45837;51.076;3.578;2024-02-14T10:35:13;21.00;58.70
59977;DHT22;45837;51.076;3.578;2024-02-14T10:37:39;21.10;58.90
59977;DHT22;45837;51.076;3.578;2024-02-14T10:40:06;21.10;58.80
59977;DHT22;45837;51.076;3.578;2024-02-14T10:42:32;21.10;58.80
59977;DHT22;45837;51.076;3.578;2024-02-14T10:44:59;21.10;58.80
59977;DHT22;45837;51.076;3.578;2024-02-14T10:47:32;21.10;58.80
59977;DHT22;45837;51.076;3.578;2024-02-14T10:50:00;21.10;58.70
59977;DHT22;45837;51.076;3.578;2024-02-14T10:52:30;21.10;58.60
59977;DHT22;45837;51.076;3.578;2024-02-14T10:54:57;21.10;58.80
59977;DHT22;45837;51.076;3.578;2024-02-14T10:57:24;21.10;58.90
59977;DHT22;45837;51.076;3.578;2024-02-14T10:59:51;21.10;58.60
59977;DHT22;45837;51.076;3.578;2024-02-14T11:02:19;21.10;58.60
59977;DHT22;45837;51.076;3.578;2024-02-14T11:04:45;21.10;58.60
59977;DHT22;45837;51.076;3.578;2024-02-14T11:07:11;21.20;58.80
59977;DHT22;45837;51.076;3.578;2024-02-14T11:09:40;21.20;58.80
59977;DHT22;45837;51.076;3.578;2024-02-14T11:12:10;21.20;58.90
59977;DHT22;45837;51.076;3.578;2024-02-14T11:14:36;21.20;58.90
59977;DHT22;45837;51.076;3.578;2024-02-14T11:17:04;21.20;58.80
59977;DHT22;45837;51.076;3.578;2024-02-14T11:19:35;21.30;58.80
59977;DHT22;45837;51.076;3.578;2024-02-14T11:22:19;21.30;58.90
59977;DHT22;45837;51.076;3.578;2024-02-14T11:24:46;21.30;58.90
59977;DHT22;45837;51.076;3.578;2024-02-14T11:27:13;21.20;59.00
59977;DHT22;45837;51.076;3.578;2024-02-14T11:29:39;21.20;59.00
59977;DHT22;45837;51.076;3.578;2024-02-14T11:32:09;21.40;58.80
59977;DHT22;45837;51.076;3.578;2024-02-14T11:34:36;21.30;58.70
59977;DHT22;45837;51.076;3.578;2024-02-14T11:37:02;21.30;58.80
59977;DHT22;45837;51.076;3.578;2024-02-14T11:39:32;21.40;58.90
59977;DHT22;45837;51.076;3.578;2024-02-14T11:41:58;21.30;58.60
59977;DHT22;45837;51.076;3.578;2024-02-14T11:44:25;21.30;58.60
59977;DHT22;45837;51.076;3.578;2024-02-14T11:46:51;21.40;58.80
59977;DHT22;45837;51.076;3.578;2024-02-14T11:49:18;21.30;59.00
59977;DHT22;45837;51.076;3.578;2024-02-14T11:51:44;21.30;59.20
59977;DHT22;45837;51.076;3.578;2024-02-14T11:54:10;21.30;59.30
59977;DHT22;45837;51.076;3.578;2024-02-14T11:56:37;21.30;59.40
59977;DHT22;45837;51.076;3.578;2024-02-14T11:59:04;21.30;59.50
59977;DHT22;45837;51.076;3.578;2024-02-14T12:01:35;21.30;59.50
59977;DHT22;45837;51.076;3.578;2024-02-14T12:04:02;21.30;59.70
59977;DHT22;45837;51.076;3.578;2024-02-14T12:06:29;21.30;59.80
59977;DHT22;45837;51.076;3.578;2024-02-14T12:09:02;21.30;59.80
59977;DHT22;45837;51.076;3.578;2024-02-14T12:11:37;21.30;59.80
59977;DHT22;45837;51.076;3.578;2024-02-14T12:14:05;21.40;59.80
59977;DHT22;45837;51.076;3.578;2024-02-14T12:16:31;21.40;60.00
59977;DHT22;45837;51.076;3.578;2024-02-14T12:19:08;21.40;60.20
59977;DHT22;45837;51.076;3.578;2024-02-14T12:21:39;21.40;60.10
59977;DHT22;45837;51.076;3.578;2024-02-14T12:24:07;21.40;60.10
59977;DHT22;45837;51.076;3.578;2024-02-14T12:26:34;21.40;60.10
59977;DHT22;45837;51.076;3.578;2024-02-14T12:29:05;20.90;59.90
59977;DHT22;45837;51.076;3.578;2024-02-14T12:31:33;21.50;60.40
59977;DHT22;45837;51.076;3.578;2024-02-14T12:34:00;21.40;60.60
59977;DHT22;45837;51.076;3.578;2024-02-14T12:36:28;21.50;60.50
59977;DHT22;45837;51.076;3.578;2024-02-14T12:38:55;21.50;60.50
59977;DHT22;45837;51.076;3.578;2024-02-14T12:41:21;21.50;60.70
59977;DHT22;45837;51.076;3.578;2024-02-14T12:43:49;21.40;60.60
59977;DHT22;45837;51.076;3.578;2024-02-14T12:46:15;21.50;60.80
59977;DHT22;45837;51.076;3.578;2024-02-14T12:48:41;21.50;60.60
59977;DHT22;45837;51.076;3.578;2024-02-14T12:51:07;21.50;60.50
59977;DHT22;45837;51.076;3.578;2024-02-14T12:53:34;21.50;60.70
59977;DHT22;45837;51.076;3.578;2024-02-14T12:56:00;21.50;60.90
59977;DHT22;45837;51.076;3.578;2024-02-14T12:58:26;21.50;61.00
59977;DHT22;45837;51.076;3.578;2024-02-14T13:00:52;21.50;61.00
59977;DHT22;45837;51.076;3.578;2024-02-14T13:03:19;21.50;61.10
59977;DHT22;45837;51.076;3.578;2024-02-14T13:05:45;21.40;61.30
59977;DHT22;45837;51.076;3.578;2024-02-14T13:08:12;21.10;61.30
59977;DHT22;45837;51.076;3.578;2024-02-14T13:10:38;21.40;61.40
59977;DHT22;45837;51.076;3.578;2024-02-14T13:13:04;21.40;61.60
59977;DHT22;45837;51.076;3.578;2024-02-14T13:15:30;21.30;61.80
59977;DHT22;45837;51.076;3.578;2024-02-14T13:17:56;21.30;62.00
59977;DHT22;45837;51.076;3.578;2024-02-14T13:20:25;21.30;62.10
59977;DHT22;45837;51.076;3.578;2024-02-14T13:22:50;21.30;62.30
59977;DHT22;45837;51.076;3.578;2024-02-14T13:25:17;21.30;62.10
59977;DHT22;45837;51.076;3.578;2024-02-14T13:27:44;21.40;61.90
59977;DHT22;45837;51.076;3.578;2024-02-14T13:30:10;21.30;61.70
59977;DHT22;45837;51.076;3.578;2024-02-14T13:32:36;21.30;61.50
59977;DHT22;45837;51.076;3.578;2024-02-14T13:35:03;21.40;61.30
59977;DHT22;45837;51.076;3.578;2024-02-14T13:37:34;21.40;61.10
59977;DHT22;45837;51.076;3.578;2024-02-14T13:40:01;21.40;61.00
59977;DHT22;45837;51.076;3.578;2024-02-14T13:42:30;21.50;61.00
59977;DHT22;45837;51.076;3.578;2024-02-14T13:44:56;21.40;60.80
59977;DHT22;45837;51.076;3.578;2024-02-14T13:47:21;21.40;60.70
59977;DHT22;45837;51.076;3.578;2024-02-14T13:49:48;21.40;60.70
59977;DHT22;45837;51.076;3.578;2024-02-14T13:52:14;21.40;60.80
59977;DHT22;45837;51.076;3.578;2024-02-14T13:54:42;21.40;61.00
59977;DHT22;45837;51.076;3.578;2024-02-14T13:57:08;21.40;60.80
59977;DHT22;45837;51.076;3.578;2024-02-14T13:59:34;21.40;60.90
59977;DHT22;45837;51.076;3.578;2024-02-14T14:02:00;21.30;61.20
59977;DHT22;45837;51.076;3.578;2024-02-14T14:04:25;21.30;60.90
59977;DHT22;45837;51.076;3.578;2024-02-14T14:06:51;21.40;60.60
59977;DHT22;45837;51.076;3.578;2024-02-14T14:09:17;21.40;60.40
59977;DHT22;45837;51.076;3.578;2024-02-14T14:11:43;21.50;60.40
59977;DHT22;45837;51.076;3.578;2024-02-14T14:14:09;21.50;60.20
59977;DHT22;45837;51.076;3.578;2024-02-14T14:16:41;21.50;60.50
59977;DHT22;45837;51.076;3.578;2024-02-14T14:19:09;21.40;60.90
59977;DHT22;45837;51.076;3.578;2024-02-14T14:21:34;21.40;61.80
59977;DHT22;45837;51.076;3.578;2024-02-14T14:24:00;21.30;61.90
59977;DHT22;45837;51.076;3.578;2024-02-14T14:26:26;21.20;62.20
59977;DHT22;45837;51.076;3.578;2024-02-14T14:28:52;21.20;62.60
59977;DHT22;45837;51.076;3.578;2024-02-14T14:31:19;21.20;62.70
59977;DHT22;45837;51.076;3.578;2024-02-14T14:33:45;21.30;62.70
59977;DHT22;45837;51.076;3.578;2024-02-14T14:36:11;21.30;62.50
59977;DHT22;45837;51.076;3.578;2024-02-14T14:38:37;21.30;62.80
59977;DHT22;45837;51.076;3.578;2024-02-14T14:41:03;21.30;62.50
59977;DHT22;45837;51.076;3.578;2024-02-14T14:43:30;21.30;62.30
59977;DHT22;45837;51.076;3.578;2024-02-14T14:45:56;21.30;62.60
59977;DHT22;45837;51.076;3.578;2024-02-14T14:48:22;21.20;62.60
59977;DHT22;45837;51.076;3.578;2024-02-14T14:50:48;21.20;63.50
59977;DHT22;45837;51.076;3.578;2024-02-14T14:53:15;21.20;63.00
59977;DHT22;45837;51.076;3.578;2024-02-14T14:55:56;21.20;63.10
59977;DHT22;45837;51.076;3.578;2024-02-14T14:58:23;21.30;63.00
59977;DHT22;45837;51.076;3.578;2024-02-14T15:00:55;21.30;62.90
59977;DHT22;45837;51.076;3.578;2024-02-14T15:03:21;21.30;62.90
59977;DHT22;45837;51.076;3.578;2024-02-14T15:05:47;21.30;62.90
59977;DHT22;45837;51.076;3.578;2024-02-14T15:08:14;21.40;63.70
59977;DHT22;45837;51.076;3.578;2024-02-14T15:10:40;21.40;62.80
59977;DHT22;45837;51.076;3.578;2024-02-14T15:13:06;21.30;63.00
59977;DHT22;45837;51.076;3.578;2024-02-14T15:15:35;21.30;63.10
59977;DHT22;45837;51.076;3.578;2024-02-14T15:18:01;21.30;63.30
59977;DHT22;45837;51.076;3.578;2024-02-14T15:20:27;21.30;63.60
59977;DHT22;45837;51.076;3.578;2024-02-14T15:22:55;21.40;63.30
59977;DHT22;45837;51.076;3.578;2024-02-14T15:25:21;21.40;63.90
59977;DHT22;45837;51.076;3.578;2024-02-14T15:27:47;21.40;63.90